« Back
NWS Peachtree City, Ga » Text Product » ATL Terminal Aerodrome Forecast


Printer-friendly Version
Current Version              Previous Versions:   1  2  3  4  5  6  7  8  9  

Terminal Aerodrome Forecast

525
FTUS42 KFFC 292333
TAFATL
TAF
KATL 292333Z 3000/3106 19007KT P6SM BKN045
     FM300300 17007KT P6SM BKN040
     FM301100 23010KT 5SM -RA BR OVC012
     FM301300 25010KT 5SM -RA BR BKN008 OVC012
     FM301600 29012KT P6SM BKN035
     FM302000 30014KT P6SM FEW035
     FM310000 31006KT P6SM SKC=



USA.gov is the U.S. government's official web portal to all federal, state and local government web resources and services.